sensor_id;sensor_type;location;lat;lon;timestamp;P1;durP1;ratioP1;P2;durP2;ratioP2
42602;SDS011;28233;55.748;48.752;2023-03-23T00:00:02;8.00;;;4.85;;
42602;SDS011;28233;55.748;48.752;2023-03-23T00:02:06;8.95;;;4.43;;
42602;SDS011;28233;55.748;48.752;2023-03-23T00:04:08;8.18;;;4.47;;
42602;SDS011;28233;55.748;48.752;2023-03-23T00:06:09;9.20;;;4.78;;
42602;SDS011;28233;55.748;48.752;2023-03-23T00:08:11;10.88;;;4.97;;
42602;SDS011;28233;55.748;48.752;2023-03-23T00:12:14;8.60;;;4.22;;
42602;SDS011;28233;55.748;48.752;2023-03-23T00:14:16;6.60;;;4.03;;
42602;SDS011;28233;55.748;48.752;2023-03-23T00:16:24;8.75;;;3.25;;
42602;SDS011;28233;55.748;48.752;2023-03-23T00:18:33;8.75;;;4.55;;
42602;SDS011;28233;55.748;48.752;2023-03-23T00:20:36;8.80;;;4.10;;
42602;SDS011;28233;55.748;48.752;2023-03-23T00:24:39;6.70;;;3.88;;
42602;SDS011;28233;55.748;48.752;2023-03-23T00:26:42;8.15;;;4.05;;
42602;SDS011;28233;55.748;48.752;2023-03-23T00:28:45;11.55;;;4.05;;
42602;SDS011;28233;55.748;48.752;2023-03-23T00:30:59;6.30;;;3.80;;
42602;SDS011;28233;55.748;48.752;2023-03-23T00:33:04;7.78;;;4.07;;
42602;SDS011;28233;55.748;48.752;2023-03-23T00:37:10;8.50;;;4.75;;
42602;SDS011;28233;55.748;48.752;2023-03-23T00:39:15;7.13;;;3.70;;
42602;SDS011;28233;55.748;48.752;2023-03-23T00:41:22;7.68;;;4.38;;
42602;SDS011;28233;55.748;48.752;2023-03-23T00:43:35;9.02;;;3.80;;
42602;SDS011;28233;55.748;48.752;2023-03-23T00:45:45;7.07;;;3.95;;
42602;SDS011;28233;55.748;48.752;2023-03-23T00:47:57;8.98;;;4.95;;
42602;SDS011;28233;55.748;48.752;2023-03-23T00:50:03;8.45;;;4.32;;
42602;SDS011;28233;55.748;48.752;2023-03-23T00:52:07;6.82;;;4.30;;
42602;SDS011;28233;55.748;48.752;2023-03-23T00:54:19;8.05;;;4.53;;
42602;SDS011;28233;55.748;48.752;2023-03-23T00:56:21;8.57;;;4.10;;
42602;SDS011;28233;55.748;48.752;2023-03-23T00:58:24;8.00;;;4.50;;
42602;SDS011;28233;55.748;48.752;2023-03-23T01:00:26;9.77;;;4.68;;
42602;SDS011;28233;55.748;48.752;2023-03-23T01:02:27;9.98;;;4.65;;
42602;SDS011;28233;55.748;48.752;2023-03-23T01:04:29;9.35;;;4.78;;
42602;SDS011;28233;55.748;48.752;2023-03-23T01:06:36;11.18;;;4.80;;
42602;SDS011;28233;55.748;48.752;2023-03-23T01:08:41;9.18;;;4.75;;
42602;SDS011;28233;55.748;48.752;2023-03-23T01:10:46;6.85;;;4.45;;
42602;SDS011;28233;55.748;48.752;2023-03-23T01:12:48;10.80;;;4.82;;
42602;SDS011;28233;55.748;48.752;2023-03-23T01:14:50;9.20;;;4.85;;
42602;SDS011;28233;55.748;48.752;2023-03-23T01:18:53;9.05;;;4.70;;
42602;SDS011;28233;55.748;48.752;2023-03-23T01:20:55;7.15;;;4.28;;
42602;SDS011;28233;55.748;48.752;2023-03-23T01:22:57;8.15;;;4.80;;
42602;SDS011;28233;55.748;48.752;2023-03-23T01:25:01;9.30;;;4.20;;
42602;SDS011;28233;55.748;48.752;2023-03-23T01:27:04;9.00;;;5.28;;
42602;SDS011;28233;55.748;48.752;2023-03-23T01:29:07;9.52;;;4.78;;
42602;SDS011;28233;55.748;48.752;2023-03-23T01:31:11;13.55;;;5.97;;
42602;SDS011;28233;55.748;48.752;2023-03-23T01:33:15;7.88;;;4.45;;
42602;SDS011;28233;55.748;48.752;2023-03-23T01:35:16;8.43;;;4.90;;
42602;SDS011;28233;55.748;48.752;2023-03-23T01:37:19;9.80;;;5.15;;
42602;SDS011;28233;55.748;48.752;2023-03-23T01:39:20;8.88;;;4.65;;
42602;SDS011;28233;55.748;48.752;2023-03-23T01:41:22;8.60;;;4.28;;
42602;SDS011;28233;55.748;48.752;2023-03-23T01:43:23;9.55;;;4.68;;
42602;SDS011;28233;55.748;48.752;2023-03-23T01:45:27;10.93;;;4.97;;
42602;SDS011;28233;55.748;48.752;2023-03-23T01:47:31;11.82;;;4.97;;
42602;SDS011;28233;55.748;48.752;2023-03-23T01:49:33;10.40;;;5.03;;
42602;SDS011;28233;55.748;48.752;2023-03-23T01:51:52;8.10;;;4.60;;
42602;SDS011;28233;55.748;48.752;2023-03-23T01:53:57;8.60;;;4.78;;
42602;SDS011;28233;55.748;48.752;2023-03-23T01:56:03;8.98;;;4.45;;
42602;SDS011;28233;55.748;48.752;2023-03-23T02:00:07;9.75;;;4.32;;
42602;SDS011;28233;55.748;48.752;2023-03-23T02:02:16;10.05;;;5.05;;
42602;SDS011;28233;55.748;48.752;2023-03-23T02:04:18;10.45;;;5.43;;
42602;SDS011;28233;55.748;48.752;2023-03-23T02:06:22;12.15;;;5.63;;
42602;SDS011;28233;55.748;48.752;2023-03-23T02:08:24;10.35;;;5.55;;
42602;SDS011;28233;55.748;48.752;2023-03-23T02:10:30;8.63;;;5.05;;
42602;SDS011;28233;55.748;48.752;2023-03-23T02:12:32;11.40;;;5.22;;
42602;SDS011;28233;55.748;48.752;2023-03-23T02:26:11;13.27;;;6.32;;
42602;SDS011;28233;55.748;48.752;2023-03-23T02:31:17;11.75;;;5.35;;
42602;SDS011;28233;55.748;48.752;2023-03-23T02:33:35;10.70;;;5.85;;
42602;SDS011;28233;55.748;48.752;2023-03-23T02:35:56;11.35;;;6.00;;
42602;SDS011;28233;55.748;48.752;2023-03-23T02:38:22;11.50;;;5.50;;
42602;SDS011;28233;55.748;48.752;2023-03-23T02:40:45;19.30;;;7.03;;
42602;SDS011;28233;55.748;48.752;2023-03-23T02:42:50;14.13;;;7.22;;
42602;SDS011;28233;55.748;48.752;2023-03-23T02:44:55;12.25;;;6.38;;
42602;SDS011;28233;55.748;48.752;2023-03-23T02:47:00;10.27;;;6.10;;
42602;SDS011;28233;55.748;48.752;2023-03-23T02:49:05;14.18;;;6.93;;
42602;SDS011;28233;55.748;48.752;2023-03-23T02:51:09;12.77;;;6.43;;
42602;SDS011;28233;55.748;48.752;2023-03-23T02:53:13;10.93;;;6.63;;
42602;SDS011;28233;55.748;48.752;2023-03-23T02:55:19;13.85;;;6.65;;
42602;SDS011;28233;55.748;48.752;2023-03-23T02:57:26;10.40;;;6.22;;
42602;SDS011;28233;55.748;48.752;2023-03-23T02:59:36;15.13;;;7.97;;
42602;SDS011;28233;55.748;48.752;2023-03-23T03:03:39;12.05;;;6.22;;
42602;SDS011;28233;55.748;48.752;2023-03-23T03:10:29;12.57;;;7.03;;
42602;SDS011;28233;55.748;48.752;2023-03-23T03:12:55;11.88;;;6.60;;
42602;SDS011;28233;55.748;48.752;2023-03-23T03:17:23;12.85;;;7.30;;
42602;SDS011;28233;55.748;48.752;2023-03-23T03:19:30;8.50;;;5.85;;
42602;SDS011;28233;55.748;48.752;2023-03-23T03:21:37;13.15;;;6.30;;
42602;SDS011;28233;55.748;48.752;2023-03-23T03:23:42;14.43;;;6.45;;
42602;SDS011;28233;55.748;48.752;2023-03-23T03:25:45;10.82;;;5.93;;
42602;SDS011;28233;55.748;48.752;2023-03-23T03:27:50;11.75;;;6.47;;
42602;SDS011;28233;55.748;48.752;2023-03-23T03:29:54;13.25;;;6.90;;
42602;SDS011;28233;55.748;48.752;2023-03-23T03:32:01;15.13;;;8.45;;
42602;SDS011;28233;55.748;48.752;2023-03-23T03:34:06;12.88;;;6.68;;
42602;SDS011;28233;55.748;48.752;2023-03-23T03:36:08;12.30;;;7.18;;
42602;SDS011;28233;55.748;48.752;2023-03-23T03:38:19;14.07;;;7.43;;
42602;SDS011;28233;55.748;48.752;2023-03-23T03:40:21;12.57;;;6.90;;
42602;SDS011;28233;55.748;48.752;2023-03-23T03:44:23;11.80;;;6.90;;
42602;SDS011;28233;55.748;48.752;2023-03-23T03:46:25;11.63;;;7.00;;
42602;SDS011;28233;55.748;48.752;2023-03-23T03:48:30;13.98;;;7.10;;
42602;SDS011;28233;55.748;48.752;2023-03-23T03:50:31;13.35;;;7.28;;
42602;SDS011;28233;55.748;48.752;2023-03-23T03:52:33;13.35;;;7.10;;
42602;SDS011;28233;55.748;48.752;2023-03-23T03:56:37;13.00;;;7.28;;
42602;SDS011;28233;55.748;48.752;2023-03-23T03:58:41;13.75;;;6.75;;
42602;SDS011;28233;55.748;48.752;2023-03-23T04:00:43;14.25;;;6.60;;
42602;SDS011;28233;55.748;48.752;2023-03-23T04:02:49;11.82;;;6.90;;
42602;SDS011;28233;55.748;48.752;2023-03-23T04:04:55;11.45;;;7.07;;
42602;SDS011;28233;55.748;48.752;2023-03-23T04:06:57;13.18;;;7.22;;
42602;SDS011;28233;55.748;48.752;2023-03-23T04:08:59;13.93;;;7.65;;
42602;SDS011;28233;55.748;48.752;2023-03-23T04:11:02;14.43;;;6.68;;
42602;SDS011;28233;55.748;48.752;2023-03-23T04:13:03;14.70;;;7.85;;
42602;SDS011;28233;55.748;48.752;2023-03-23T04:15:08;13.80;;;7.13;;
42602;SDS011;28233;55.748;48.752;2023-03-23T04:17:10;23.73;;;7.82;;
42602;SDS011;28233;55.748;48.752;2023-03-23T04:19:11;13.82;;;7.38;;
42602;SDS011;28233;55.748;48.752;2023-03-23T04:21:13;14.00;;;6.50;;
42602;SDS011;28233;55.748;48.752;2023-03-23T04:23:15;14.80;;;6.85;;
42602;SDS011;28233;55.748;48.752;2023-03-23T04:25:22;10.88;;;6.47;;
42602;SDS011;28233;55.748;48.752;2023-03-23T04:27:24;12.82;;;7.00;;
42602;SDS011;28233;55.748;48.752;2023-03-23T04:29:28;14.30;;;6.63;;
42602;SDS011;28233;55.748;48.752;2023-03-23T04:31:31;10.63;;;6.32;;
42602;SDS011;28233;55.748;48.752;2023-03-23T04:33:32;10.73;;;6.30;;
42602;SDS011;28233;55.748;48.752;2023-03-23T04:35:34;12.20;;;6.93;;
42602;SDS011;28233;55.748;48.752;2023-03-23T04:37:35;14.68;;;8.07;;
42602;SDS011;28233;55.748;48.752;2023-03-23T04:39:38;13.15;;;6.82;;
42602;SDS011;28233;55.748;48.752;2023-03-23T04:41:40;11.82;;;6.22;;
42602;SDS011;28233;55.748;48.752;2023-03-23T04:43:42;15.10;;;6.80;;
42602;SDS011;28233;55.748;48.752;2023-03-23T04:45:44;14.40;;;6.40;;
42602;SDS011;28233;55.748;48.752;2023-03-23T04:47:47;15.82;;;7.05;;
42602;SDS011;28233;55.748;48.752;2023-03-23T04:49:58;9.05;;;5.38;;
42602;SDS011;28233;55.748;48.752;2023-03-23T04:51:59;10.73;;;6.45;;
42602;SDS011;28233;55.748;48.752;2023-03-23T04:54:01;11.77;;;7.22;;
42602;SDS011;28233;55.748;48.752;2023-03-23T04:56:02;12.20;;;6.32;;
42602;SDS011;28233;55.748;48.752;2023-03-23T04:58:04;11.90;;;6.78;;
42602;SDS011;28233;55.748;48.752;2023-03-23T05:00:07;10.48;;;6.93;;
42602;SDS011;28233;55.748;48.752;2023-03-23T05:02:10;13.85;;;8.23;;
42602;SDS011;28233;55.748;48.752;2023-03-23T05:04:11;13.00;;;6.78;;
42602;SDS011;28233;55.748;48.752;2023-03-23T05:06:17;13.32;;;6.85;;
42602;SDS011;28233;55.748;48.752;2023-03-23T05:08:19;15.25;;;8.25;;
42602;SDS011;28233;55.748;48.752;2023-03-23T05:10:21;13.43;;;7.00;;
42602;SDS011;28233;55.748;48.752;2023-03-23T05:12:23;12.23;;;7.32;;
42602;SDS011;28233;55.748;48.752;2023-03-23T05:14:25;15.48;;;8.15;;
42602;SDS011;28233;55.748;48.752;2023-03-23T05:16:27;13.82;;;7.68;;
42602;SDS011;28233;55.748;48.752;2023-03-23T05:18:29;11.90;;;7.13;;
42602;SDS011;28233;55.748;48.752;2023-03-23T05:20:32;12.25;;;6.72;;
42602;SDS011;28233;55.748;48.752;2023-03-23T05:24:37;10.43;;;6.22;;
42602;SDS011;28233;55.748;48.752;2023-03-23T05:26:38;9.55;;;6.18;;
42602;SDS011;28233;55.748;48.752;2023-03-23T05:28:40;14.00;;;8.52;;
42602;SDS011;28233;55.748;48.752;2023-03-23T05:30:42;11.27;;;6.90;;
42602;SDS011;28233;55.748;48.752;2023-03-23T05:32:45;16.77;;;9.48;;
42602;SDS011;28233;55.748;48.752;2023-03-23T05:34:51;12.93;;;7.93;;
42602;SDS011;28233;55.748;48.752;2023-03-23T05:36:52;11.80;;;7.13;;
42602;SDS011;28233;55.748;48.752;2023-03-23T05:38:54;12.18;;;7.22;;
42602;SDS011;28233;55.748;48.752;2023-03-23T05:40:57;11.45;;;6.15;;
42602;SDS011;28233;55.748;48.752;2023-03-23T05:43:02;13.02;;;8.38;;
42602;SDS011;28233;55.748;48.752;2023-03-23T05:45:04;12.35;;;6.78;;
42602;SDS011;28233;55.748;48.752;2023-03-23T05:47:06;15.07;;;8.18;;
42602;SDS011;28233;55.748;48.752;2023-03-23T05:49:07;15.07;;;7.35;;
42602;SDS011;28233;55.748;48.752;2023-03-23T05:51:09;14.27;;;8.10;;
42602;SDS011;28233;55.748;48.752;2023-03-23T05:53:11;14.27;;;7.68;;
42602;SDS011;28233;55.748;48.752;2023-03-23T05:55:13;18.08;;;8.02;;
42602;SDS011;28233;55.748;48.752;2023-03-23T05:57:16;13.32;;;7.78;;
42602;SDS011;28233;55.748;48.752;2023-03-23T06:01:19;12.65;;;6.97;;
42602;SDS011;28233;55.748;48.752;2023-03-23T06:03:20;13.30;;;8.32;;
42602;SDS011;28233;55.748;48.752;2023-03-23T06:05:23;14.52;;;8.00;;
42602;SDS011;28233;55.748;48.752;2023-03-23T06:07:26;15.80;;;9.25;;
42602;SDS011;28233;55.748;48.752;2023-03-23T06:09:27;11.23;;;7.47;;
42602;SDS011;28233;55.748;48.752;2023-03-23T06:13:31;14.83;;;7.17;;
42602;SDS011;28233;55.748;48.752;2023-03-23T06:17:34;10.80;;;6.70;;
42602;SDS011;28233;55.748;48.752;2023-03-23T06:19:37;16.23;;;8.82;;
42602;SDS011;28233;55.748;48.752;2023-03-23T06:21:38;18.38;;;10.48;;
42602;SDS011;28233;55.748;48.752;2023-03-23T06:23:40;13.73;;;8.23;;
42602;SDS011;28233;55.748;48.752;2023-03-23T06:25:41;21.55;;;8.95;;
42602;SDS011;28233;55.748;48.752;2023-03-23T06:29:44;10.88;;;7.45;;
42602;SDS011;28233;55.748;48.752;2023-03-23T06:31:47;13.15;;;8.25;;
42602;SDS011;28233;55.748;48.752;2023-03-23T06:33:51;12.35;;;7.55;;
42602;SDS011;28233;55.748;48.752;2023-03-23T06:35:53;16.52;;;7.55;;
42602;SDS011;28233;55.748;48.752;2023-03-23T06:37:56;15.82;;;8.57;;
42602;SDS011;28233;55.748;48.752;2023-03-23T06:40:02;13.45;;;7.80;;
42602;SDS011;28233;55.748;48.752;2023-03-23T06:42:10;12.50;;;7.10;;
42602;SDS011;28233;55.748;48.752;2023-03-23T06:44:13;12.23;;;7.72;;
42602;SDS011;28233;55.748;48.752;2023-03-23T06:46:14;11.13;;;6.07;;
42602;SDS011;28233;55.748;48.752;2023-03-23T06:50:17;10.68;;;5.95;;
42602;SDS011;28233;55.748;48.752;2023-03-23T06:52:19;9.65;;;6.63;;
42602;SDS011;28233;55.748;48.752;2023-03-23T06:54:20;11.48;;;6.03;;
42602;SDS011;28233;55.748;48.752;2023-03-23T06:56:22;9.68;;;5.75;;
42602;SDS011;28233;55.748;48.752;2023-03-23T06:58:23;9.35;;;5.82;;
42602;SDS011;28233;55.748;48.752;2023-03-23T07:00:25;9.65;;;5.25;;
42602;SDS011;28233;55.748;48.752;2023-03-23T07:02:26;10.98;;;6.68;;
42602;SDS011;28233;55.748;48.752;2023-03-23T07:06:29;10.52;;;6.45;;
42602;SDS011;28233;55.748;48.752;2023-03-23T07:08:31;12.35;;;7.57;;
42602;SDS011;28233;55.748;48.752;2023-03-23T07:10:32;14.05;;;7.32;;
42602;SDS011;28233;55.748;48.752;2023-03-23T07:12:34;12.15;;;7.00;;
42602;SDS011;28233;55.748;48.752;2023-03-23T07:14:36;9.98;;;5.78;;
42602;SDS011;28233;55.748;48.752;2023-03-23T07:16:38;12.88;;;6.22;;
42602;SDS011;28233;55.748;48.752;2023-03-23T07:18:39;11.43;;;5.65;;
42602;SDS011;28233;55.748;48.752;2023-03-23T07:20:41;11.13;;;5.57;;
42602;SDS011;28233;55.748;48.752;2023-03-23T07:22:42;11.50;;;6.38;;
42602;SDS011;28233;55.748;48.752;2023-03-23T07:24:44;9.75;;;6.03;;
42602;SDS011;28233;55.748;48.752;2023-03-23T07:26:46;9.93;;;5.85;;
42602;SDS011;28233;55.748;48.752;2023-03-23T07:28:48;8.82;;;6.00;;
42602;SDS011;28233;55.748;48.752;2023-03-23T07:30:50;9.95;;;5.22;;
42602;SDS011;28233;55.748;48.752;2023-03-23T07:32:52;9.05;;;5.05;;
42602;SDS011;28233;55.748;48.752;2023-03-23T07:34:53;10.00;;;4.97;;
42602;SDS011;28233;55.748;48.752;2023-03-23T07:36:55;11.85;;;5.97;;
42602;SDS011;28233;55.748;48.752;2023-03-23T07:38:57;9.32;;;5.15;;
42602;SDS011;28233;55.748;48.752;2023-03-23T07:40:59;9.73;;;4.95;;
42602;SDS011;28233;55.748;48.752;2023-03-23T07:43:01;7.60;;;4.72;;
42602;SDS011;28233;55.748;48.752;2023-03-23T07:45:04;11.93;;;5.80;;
42602;SDS011;28233;55.748;48.752;2023-03-23T07:47:06;9.15;;;4.80;;
42602;SDS011;28233;55.748;48.752;2023-03-23T07:49:08;7.68;;;4.80;;
42602;SDS011;28233;55.748;48.752;2023-03-23T07:51:11;11.25;;;4.35;;
42602;SDS011;28233;55.748;48.752;2023-03-23T07:53:12;10.27;;;5.45;;
42602;SDS011;28233;55.748;48.752;2023-03-23T07:55:14;8.65;;;5.20;;
42602;SDS011;28233;55.748;48.752;2023-03-23T07:57:18;12.68;;;4.90;;
42602;SDS011;28233;55.748;48.752;2023-03-23T07:59:19;7.47;;;4.97;;
42602;SDS011;28233;55.748;48.752;2023-03-23T08:03:24;8.15;;;4.30;;
42602;SDS011;28233;55.748;48.752;2023-03-23T08:05:26;6.75;;;4.28;;
42602;SDS011;28233;55.748;48.752;2023-03-23T08:07:28;6.60;;;4.40;;
42602;SDS011;28233;55.748;48.752;2023-03-23T08:09:30;5.82;;;4.07;;
42602;SDS011;28233;55.748;48.752;2023-03-23T08:11:32;10.50;;;4.72;;
42602;SDS011;28233;55.748;48.752;2023-03-23T08:13:35;14.90;;;4.53;;
42602;SDS011;28233;55.748;48.752;2023-03-23T08:15:36;6.78;;;4.13;;
42602;SDS011;28233;55.748;48.752;2023-03-23T08:19:41;6.10;;;3.60;;
42602;SDS011;28233;55.748;48.752;2023-03-23T08:21:43;6.55;;;4.72;;
42602;SDS011;28233;55.748;48.752;2023-03-23T08:23:45;8.30;;;5.10;;
42602;SDS011;28233;55.748;48.752;2023-03-23T08:25:47;10.18;;;4.75;;
42602;SDS011;28233;55.748;48.752;2023-03-23T08:27:49;8.68;;;4.82;;
42602;SDS011;28233;55.748;48.752;2023-03-23T08:29:51;7.63;;;4.63;;
42602;SDS011;28233;55.748;48.752;2023-03-23T08:31:53;6.65;;;4.22;;
42602;SDS011;28233;55.748;48.752;2023-03-23T08:33:54;7.60;;;4.97;;
42602;SDS011;28233;55.748;48.752;2023-03-23T08:35:57;9.63;;;5.00;;
42602;SDS011;28233;55.748;48.752;2023-03-23T08:38:00;7.47;;;4.82;;
42602;SDS011;28233;55.748;48.752;2023-03-23T08:40:02;10.23;;;4.75;;
42602;SDS011;28233;55.748;48.752;2023-03-23T08:42:11;7.25;;;4.72;;
42602;SDS011;28233;55.748;48.752;2023-03-23T08:44:13;6.63;;;4.35;;
42602;SDS011;28233;55.748;48.752;2023-03-23T08:46:15;9.02;;;5.00;;
42602;SDS011;28233;55.748;48.752;2023-03-23T08:48:16;8.15;;;4.53;;
42602;SDS011;28233;55.748;48.752;2023-03-23T08:50:20;5.32;;;3.83;;
42602;SDS011;28233;55.748;48.752;2023-03-23T08:52:23;7.07;;;4.47;;
42602;SDS011;28233;55.748;48.752;2023-03-23T08:54:25;7.13;;;4.57;;
42602;SDS011;28233;55.748;48.752;2023-03-23T08:56:27;5.78;;;3.58;;
42602;SDS011;28233;55.748;48.752;2023-03-23T09:00:30;6.63;;;4.15;;
42602;SDS011;28233;55.748;48.752;2023-03-23T09:02:33;6.07;;;3.80;;
42602;SDS011;28233;55.748;48.752;2023-03-23T09:04:35;5.43;;;3.67;;
42602;SDS011;28233;55.748;48.752;2023-03-23T09:06:37;9.45;;;4.82;;
42602;SDS011;28233;55.748;48.752;2023-03-23T09:08:39;6.80;;;4.53;;
42602;SDS011;28233;55.748;48.752;2023-03-23T09:10:40;7.57;;;4.53;;
42602;SDS011;28233;55.748;48.752;2023-03-23T09:12:42;7.20;;;4.45;;
42602;SDS011;28233;55.748;48.752;2023-03-23T09:14:46;9.98;;;4.95;;
42602;SDS011;28233;55.748;48.752;2023-03-23T09:16:48;7.25;;;5.20;;
42602;SDS011;28233;55.748;48.752;2023-03-23T09:18:49;9.45;;;5.50;;
42602;SDS011;28233;55.748;48.752;2023-03-23T09:20:51;8.52;;;5.45;;
42602;SDS011;28233;55.748;48.752;2023-03-23T09:22:55;8.20;;;4.40;;
42602;SDS011;28233;55.748;48.752;2023-03-23T09:24:58;10.38;;;5.63;;
42602;SDS011;28233;55.748;48.752;2023-03-23T09:26:59;11.52;;;5.47;;
42602;SDS011;28233;55.748;48.752;2023-03-23T09:29:01;7.03;;;4.75;;
42602;SDS011;28233;55.748;48.752;2023-03-23T09:31:02;8.65;;;5.28;;
42602;SDS011;28233;55.748;48.752;2023-03-23T09:33:05;9.85;;;5.95;;
42602;SDS011;28233;55.748;48.752;2023-03-23T09:35:09;7.35;;;4.88;;
42602;SDS011;28233;55.748;48.752;2023-03-23T09:37:12;6.35;;;4.53;;
42602;SDS011;28233;55.748;48.752;2023-03-23T09:39:15;11.10;;;4.70;;
42602;SDS011;28233;55.748;48.752;2023-03-23T09:43:45;7.20;;;5.00;;
42602;SDS011;28233;55.748;48.752;2023-03-23T09:50:25;8.57;;;4.65;;
42602;SDS011;28233;55.748;48.752;2023-03-23T09:52:42;7.10;;;4.50;;
42602;SDS011;28233;55.748;48.752;2023-03-23T09:54:51;5.70;;;4.47;;
42602;SDS011;28233;55.748;48.752;2023-03-23T09:56:55;10.80;;;4.82;;
42602;SDS011;28233;55.748;48.752;2023-03-23T09:59:01;9.30;;;4.40;;
42602;SDS011;28233;55.748;48.752;2023-03-23T10:01:08;10.60;;;5.78;;
42602;SDS011;28233;55.748;48.752;2023-03-23T10:03:33;8.07;;;5.13;;
42602;SDS011;28233;55.748;48.752;2023-03-23T10:05:44;7.80;;;4.40;;
42602;SDS011;28233;55.748;48.752;2023-03-23T10:07:48;7.28;;;4.72;;
42602;SDS011;28233;55.748;48.752;2023-03-23T10:09:55;5.32;;;4.15;;
42602;SDS011;28233;55.748;48.752;2023-03-23T10:12:02;11.30;;;5.13;;
42602;SDS011;28233;55.748;48.752;2023-03-23T10:16:30;7.90;;;4.30;;
42602;SDS011;28233;55.748;48.752;2023-03-23T10:18:41;7.95;;;4.38;;
42602;SDS011;28233;55.748;48.752;2023-03-23T10:20:48;6.22;;;4.13;;
42602;SDS011;28233;55.748;48.752;2023-03-23T10:25:15;5.90;;;3.47;;
42602;SDS011;28233;55.748;48.752;2023-03-23T10:27:26;6.00;;;3.50;;
42602;SDS011;28233;55.748;48.752;2023-03-23T10:29:47;6.68;;;3.95;;
42602;SDS011;28233;55.748;48.752;2023-03-23T10:32:12;4.63;;;3.38;;
42602;SDS011;28233;55.748;48.752;2023-03-23T10:34:19;8.82;;;3.97;;
42602;SDS011;28233;55.748;48.752;2023-03-23T10:38:40;9.02;;;4.85;;
42602;SDS011;28233;55.748;48.752;2023-03-23T10:40:57;7.25;;;4.15;;
42602;SDS011;28233;55.748;48.752;2023-03-23T10:43:02;8.85;;;4.70;;
42602;SDS011;28233;55.748;48.752;2023-03-23T10:47:29;6.07;;;4.65;;
42602;SDS011;28233;55.748;48.752;2023-03-23T10:49:36;7.10;;;4.50;;
42602;SDS011;28233;55.748;48.752;2023-03-23T10:51:57;9.40;;;4.90;;
42602;SDS011;28233;55.748;48.752;2023-03-23T10:54:07;7.88;;;4.40;;
42602;SDS011;28233;55.748;48.752;2023-03-23T10:56:23;6.40;;;4.70;;
42602;SDS011;28233;55.748;48.752;2023-03-23T10:58:26;12.55;;;4.50;;
42602;SDS011;28233;55.748;48.752;2023-03-23T11:00:30;6.25;;;4.32;;
42602;SDS011;28233;55.748;48.752;2023-03-23T11:02:43;5.07;;;3.65;;
42602;SDS011;28233;55.748;48.752;2023-03-23T11:07:18;5.45;;;3.63;;
42602;SDS011;28233;55.748;48.752;2023-03-23T11:09:34;7.60;;;3.97;;
42602;SDS011;28233;55.748;48.752;2023-03-23T11:11:38;5.35;;;3.20;;
42602;SDS011;28233;55.748;48.752;2023-03-23T11:13:45;5.53;;;3.50;;
42602;SDS011;28233;55.748;48.752;2023-03-23T11:15:49;10.00;;;4.30;;
42602;SDS011;28233;55.748;48.752;2023-03-23T11:17:57;7.15;;;3.38;;
42602;SDS011;28233;55.748;48.752;2023-03-23T11:20:10;6.95;;;3.50;;
42602;SDS011;28233;55.748;48.752;2023-03-23T11:22:16;6.80;;;3.33;;
42602;SDS011;28233;55.748;48.752;2023-03-23T11:24:27;5.18;;;3.42;;
42602;SDS011;28233;55.748;48.752;2023-03-23T11:26:30;4.85;;;3.03;;
42602;SDS011;28233;55.748;48.752;2023-03-23T11:28:35;4.88;;;3.13;;
42602;SDS011;28233;55.748;48.752;2023-03-23T11:30:52;6.50;;;3.53;;
42602;SDS011;28233;55.748;48.752;2023-03-23T11:32:58;5.78;;;2.92;;
42602;SDS011;28233;55.748;48.752;2023-03-23T11:35:03;5.85;;;2.88;;
42602;SDS011;28233;55.748;48.752;2023-03-23T11:37:10;5.93;;;2.95;;
42602;SDS011;28233;55.748;48.752;2023-03-23T11:39:28;6.22;;;3.10;;
42602;SDS011;28233;55.748;48.752;2023-03-23T11:41:35;4.55;;;2.40;;
42602;SDS011;28233;55.748;48.752;2023-03-23T11:43:40;4.10;;;2.20;;
42602;SDS011;28233;55.748;48.752;2023-03-23T11:45:47;5.82;;;2.40;;
42602;SDS011;28233;55.748;48.752;2023-03-23T11:50:34;3.15;;;2.00;;
42602;SDS011;28233;55.748;48.752;2023-03-23T11:55:09;6.32;;;2.50;;
42602;SDS011;28233;55.748;48.752;2023-03-23T11:57:21;5.18;;;2.40;;
42602;SDS011;28233;55.748;48.752;2023-03-23T11:59:27;3.65;;;2.58;;
42602;SDS011;28233;55.748;48.752;2023-03-23T12:01:53;3.90;;;2.40;;
42602;SDS011;28233;55.748;48.752;2023-03-23T12:06:20;3.95;;;2.03;;
42602;SDS011;28233;55.748;48.752;2023-03-23T12:23:21;4.32;;;2.30;;
42602;SDS011;28233;55.748;48.752;2023-03-23T12:37:22;8.05;;;5.30;;
42602;SDS011;28233;55.748;48.752;2023-03-23T12:44:14;6.90;;;4.30;;
42602;SDS011;28233;55.748;48.752;2023-03-23T12:51:27;10.55;;;5.85;;
42602;SDS011;28233;55.748;48.752;2023-03-23T12:53:40;13.30;;;5.30;;
42602;SDS011;28233;55.748;48.752;2023-03-23T12:55:52;9.20;;;5.18;;
42602;SDS011;28233;55.748;48.752;2023-03-23T12:58:11;6.88;;;4.78;;
42602;SDS011;28233;55.748;48.752;2023-03-23T13:02:42;7.22;;;5.18;;
42602;SDS011;28233;55.748;48.752;2023-03-23T13:05:07;9.02;;;5.32;;
42602;SDS011;28233;55.748;48.752;2023-03-23T13:07:16;8.57;;;5.47;;
42602;SDS011;28233;55.748;48.752;2023-03-23T13:09:26;9.57;;;5.43;;
42602;SDS011;28233;55.748;48.752;2023-03-23T13:11:48;8.43;;;5.22;;
42602;SDS011;28233;55.748;48.752;2023-03-23T13:13:55;8.23;;;4.88;;
42602;SDS011;28233;55.748;48.752;2023-03-23T13:16:15;9.10;;;5.20;;
42602;SDS011;28233;55.748;48.752;2023-03-23T13:26:01;10.13;;;5.25;;
42602;SDS011;28233;55.748;48.752;2023-03-23T13:28:20;11.35;;;4.63;;
42602;SDS011;28233;55.748;48.752;2023-03-23T13:30:27;9.27;;;6.55;;
42602;SDS011;28233;55.748;48.752;2023-03-23T13:32:34;7.30;;;5.25;;
42602;SDS011;28233;55.748;48.752;2023-03-23T13:34:38;8.07;;;5.13;;
42602;SDS011;28233;55.748;48.752;2023-03-23T13:36:43;10.70;;;5.93;;
42602;SDS011;28233;55.748;48.752;2023-03-23T13:38:53;8.32;;;5.43;;
42602;SDS011;28233;55.748;48.752;2023-03-23T13:40:57;7.32;;;4.55;;
42602;SDS011;28233;55.748;48.752;2023-03-23T13:43:07;7.97;;;5.35;;
42602;SDS011;28233;55.748;48.752;2023-03-23T13:49:24;9.88;;;6.07;;
42602;SDS011;28233;55.748;48.752;2023-03-23T13:53:45;5.95;;;4.20;;
42602;SDS011;28233;55.748;48.752;2023-03-23T13:55:49;8.95;;;4.50;;
42602;SDS011;28233;55.748;48.752;2023-03-23T14:01:01;9.57;;;4.88;;
42602;SDS011;28233;55.748;48.752;2023-03-23T14:02:39;7.72;;;4.88;;
42602;SDS011;28233;55.748;48.752;2023-03-23T14:04:42;6.65;;;4.32;;
42602;SDS011;28233;55.748;48.752;2023-03-23T14:06:49;6.88;;;4.20;;
42602;SDS011;28233;55.748;48.752;2023-03-23T14:08:53;7.05;;;4.60;;
42602;SDS011;28233;55.748;48.752;2023-03-23T14:10:59;6.40;;;4.15;;
42602;SDS011;28233;55.748;48.752;2023-03-23T14:13:10;13.90;;;4.65;;
42602;SDS011;28233;55.748;48.752;2023-03-23T14:15:53;9.68;;;4.82;;
42602;SDS011;28233;55.748;48.752;2023-03-23T14:17:58;10.32;;;4.85;;
42602;SDS011;28233;55.748;48.752;2023-03-23T14:20:04;8.38;;;4.18;;
42602;SDS011;28233;55.748;48.752;2023-03-23T14:22:23;8.93;;;4.47;;
42602;SDS011;28233;55.748;48.752;2023-03-23T14:24:27;7.32;;;4.15;;
42602;SDS011;28233;55.748;48.752;2023-03-23T14:26:29;6.53;;;4.65;;
42602;SDS011;28233;55.748;48.752;2023-03-23T14:28:37;7.45;;;5.18;;
42602;SDS011;28233;55.748;48.752;2023-03-23T14:30:40;9.43;;;5.22;;
42602;SDS011;28233;55.748;48.752;2023-03-23T14:32:42;9.02;;;5.47;;
42602;SDS011;28233;55.748;48.752;2023-03-23T14:34:46;9.75;;;5.70;;
42602;SDS011;28233;55.748;48.752;2023-03-23T14:36:49;7.57;;;4.90;;